createdAt,value
2022-08-31T22:48:02.026Z,25.87
2022-08-31T22:48:33.651Z,25.90
2022-08-31T22:49:07.880Z,25.90
2022-08-31T22:49:39.263Z,25.86
2022-08-31T22:50:10.866Z,25.88
2022-08-31T22:50:42.290Z,25.90
2022-08-31T22:51:13.919Z,25.92
2022-08-31T22:51:45.358Z,25.95
2022-08-31T22:52:17.517Z,25.94
2022-08-31T22:52:49.100Z,25.93
2022-08-31T22:53:20.551Z,25.94
2022-08-31T22:53:52.358Z,25.92
2022-08-31T22:54:24.040Z,25.91
2022-08-31T22:54:55.491Z,25.92
2022-08-31T22:55:27.299Z,25.94
2022-08-31T22:55:58.850Z,25.89
2022-08-31T22:56:30.301Z,25.85
2022-08-31T22:57:01.881Z,25.84
2022-08-31T22:57:33.832Z,25.79
2022-08-31T22:58:05.331Z,25.68
2022-08-31T22:58:36.905Z,25.61
2022-08-31T22:59:08.574Z,25.54
2022-08-31T22:59:40.030Z,25.50
2022-08-31T23:00:11.820Z,25.53
2022-08-31T23:00:43.937Z,25.52
2022-08-31T23:01:15.975Z,25.53
2022-08-31T23:01:47.525Z,25.51
2022-08-31T23:02:19.191Z,25.50
2022-08-31T23:02:50.778Z,25.51
2022-08-31T23:03:22.234Z,25.51
2022-08-31T23:03:53.819Z,25.50
2022-08-31T23:04:25.610Z,25.50
2022-08-31T23:04:57.027Z,25.51
2022-08-31T23:05:28.858Z,25.52
2022-08-31T23:06:00.835Z,25.49
2022-08-31T23:06:32.557Z,25.48
2022-08-31T23:07:04.044Z,25.46
2022-08-31T23:07:35.469Z,25.44
2022-08-31T23:08:07.051Z,25.46
2022-08-31T23:08:38.538Z,25.45
2022-08-31T23:09:10.306Z,25.45
2022-08-31T23:09:41.809Z,25.44
2022-08-31T23:10:13.199Z,25.42
2022-08-31T23:10:44.653Z,25.43
2022-08-31T23:11:16.180Z,25.44
2022-08-31T23:11:47.948Z,25.41
2022-08-31T23:12:19.859Z,25.41
2022-08-31T23:12:51.444Z,25.40
2022-08-31T23:13:23.618Z,25.40
2022-08-31T23:13:55.199Z,25.41
2022-08-31T23:14:27.022Z,25.38
2022-08-31T23:14:58.533Z,25.40
2022-08-31T23:15:30.337Z,25.40
2022-08-31T23:16:02.020Z,25.36
2022-08-31T23:16:33.551Z,25.36
2022-08-31T23:17:04.965Z,25.37
2022-08-31T23:17:36.530Z,25.35
2022-08-31T23:18:07.955Z,25.33
2022-08-31T23:18:39.456Z,25.33
2022-08-31T23:19:10.926Z,25.34
2022-08-31T23:19:42.441Z,25.33
2022-08-31T23:20:14.007Z,25.33
2022-08-31T23:20:45.585Z,25.31
2022-08-31T23:21:17.114Z,25.32
2022-08-31T23:21:53.026Z,25.31
2022-08-31T23:22:29.142Z,25.32
2022-08-31T23:23:00.689Z,25.30
2022-08-31T23:23:32.300Z,25.30
2022-08-31T23:24:03.741Z,25.31
2022-08-31T23:24:35.260Z,25.31
2022-08-31T23:25:06.739Z,25.30
2022-08-31T23:25:38.209Z,25.28
2022-08-31T23:26:09.724Z,25.29
2022-08-31T23:26:41.371Z,25.27
2022-08-31T23:27:12.826Z,25.26
2022-08-31T23:27:44.352Z,25.26
2022-08-31T23:28:15.862Z,25.27
2022-08-31T23:28:47.551Z,25.25
2022-08-31T23:29:19.330Z,25.27
2022-08-31T23:29:50.755Z,25.26
2022-08-31T23:30:22.210Z,25.25
2022-08-31T23:30:54.666Z,25.25
2022-08-31T23:31:26.189Z,25.23
2022-08-31T23:31:57.893Z,25.23
2022-08-31T23:32:29.677Z,25.22
2022-08-31T23:33:01.417Z,25.21
2022-08-31T23:33:33.169Z,25.22
2022-08-31T23:34:04.747Z,25.22
2022-08-31T23:34:36.345Z,25.22
2022-08-31T23:35:07.891Z,25.21
2022-08-31T23:35:39.451Z,25.21
2022-08-31T23:36:10.983Z,25.21
2022-08-31T23:36:42.453Z,25.21
2022-08-31T23:37:14.020Z,25.20
2022-08-31T23:37:45.840Z,25.21
2022-08-31T23:38:17.820Z,25.20
2022-08-31T23:38:49.744Z,25.20
2022-08-31T23:39:21.507Z,25.19
2022-08-31T23:39:53.153Z,25.20
2022-08-31T23:40:24.784Z,25.20
2022-08-31T23:40:56.229Z,25.19
2022-08-31T23:41:28.046Z,25.17
2022-08-31T23:41:59.485Z,25.17
2022-08-31T23:42:31.427Z,25.17
2022-08-31T23:43:03.219Z,25.17
2022-08-31T23:43:35.019Z,25.17
2022-08-31T23:44:06.553Z,25.16
2022-08-31T23:44:37.999Z,25.15
2022-08-31T23:45:09.446Z,25.15
2022-08-31T23:45:41.045Z,25.15
2022-08-31T23:46:12.844Z,25.13
2022-08-31T23:46:44.599Z,25.15
2022-08-31T23:47:16.337Z,25.14
2022-08-31T23:47:48.144Z,25.14
2022-08-31T23:48:19.860Z,25.14
2022-08-31T23:48:51.663Z,25.15
2022-08-31T23:49:23.703Z,25.15
2022-08-31T23:49:55.082Z,25.15
2022-08-31T23:50:26.632Z,25.14
2022-08-31T23:50:58.119Z,25.15
2022-08-31T23:51:29.823Z,25.13
2022-08-31T23:52:01.803Z,25.14
2022-08-31T23:52:33.526Z,25.12
2022-08-31T23:53:05.064Z,25.11
2022-08-31T23:53:36.661Z,25.12
2022-08-31T23:54:08.231Z,25.12
2022-08-31T23:54:39.715Z,25.10
2022-08-31T23:55:11.463Z,25.10
2022-08-31T23:55:43.041Z,25.09
2022-08-31T23:56:14.879Z,25.09
2022-08-31T23:56:46.760Z,25.09
2022-08-31T23:57:31.564Z,25.09
2022-08-31T23:58:04.801Z,25.06
2022-08-31T23:58:36.611Z,25.07
2022-08-31T23:59:08.213Z,25.06
2022-08-31T23:59:39.999Z,25.06
